Time;durP1;ratioP1;P1;durP2;ratioP2;P2;SDS_P1;SDS_P2;PMS_P1;PMS_P2;Temp;Humidity;BMP_temperature;BMP_pressure;BME280_temperature;BME280_humidity;BME280_pressure;Samples;Min_cycle;Max_cycle;Signal;HPM_P1;HPM_P2
2023/09/15 00:02:59;;;;;;;2.05;1.30;;;19.10;99.90;;;17.94;100.00;100411.53;10373699;28;98960;-90
2023/09/15 00:08:07;;;;;;;1.80;1.20;;;19.10;99.90;;;17.94;99.72;100417.75;10337346;28;96610;-90
2023/09/15 00:13:11;;;;;;;2.00;1.38;;;19.20;99.90;;;17.90;99.59;100420.00;10358605;28;97415;-89
2023/09/15 00:18:15;;;;;;;1.70;1.30;;;19.10;99.90;;;17.83;99.17;100421.91;10336012;28;98871;-89
2023/09/15 00:23:18;;;;;;;3.03;1.15;;;19.10;99.90;;;17.73;99.21;100429.56;10316503;28;96626;-89
2023/09/15 00:28:22;;;;;;;1.92;1.33;;;19.10;99.90;;;17.74;99.43;100441.94;10340777;28;96587;-89
2023/09/15 00:33:26;;;;;;;1.80;1.27;;;19.00;99.90;;;17.71;100.00;100445.03;10332690;28;97303;-89
2023/09/15 00:38:30;;;;;;;1.63;1.23;;;19.00;99.90;;;17.68;100.00;100448.13;10341448;28;96676;-89
2023/09/15 00:43:33;;;;;;;2.20;1.23;;;19.00;99.90;;;17.60;99.87;100429.53;10356261;28;96635;-90
2023/09/15 00:48:39;;;;;;;2.05;1.08;;;19.00;99.90;;;17.66;100.00;100453.72;10338638;28;98846;-90
2023/09/15 00:53:43;;;;;;;2.25;1.40;;;19.00;99.90;;;17.67;100.00;100459.91;10329747;28;96615;-89
2023/09/15 00:58:47;;;;;;;2.58;1.30;;;18.90;99.90;;;17.62;100.00;100467.78;10355439;28;96854;-90
2023/09/15 01:03:52;;;;;;;2.65;1.45;;;18.90;99.90;;;17.65;100.00;100473.56;10328025;28;97302;-90
2023/09/15 01:08:56;;;;;;;1.83;1.08;;;18.90;99.90;;;17.56;100.00;100457.84;10341740;28;98274;-90
2023/09/15 01:14:00;;;;;;;2.05;1.10;;;18.90;99.90;;;17.64;100.00;100465.72;10338882;28;97312;-90
2023/09/15 01:19:42;;;;;;;2.47;1.10;;;18.90;99.90;;;17.63;100.00;100475.66;10337911;28;96531;-90
2023/09/15 01:25:19;;;;;;;2.65;1.50;;;18.90;99.90;;;17.59;100.00;100470.88;10350422;28;98860;-90
2023/09/15 01:30:24;;;;;;;2.90;1.60;;;18.90;99.90;;;17.54;100.00;100476.06;10343127;28;96471;-90
2023/09/15 01:35:28;;;;;;;2.17;1.42;;;18.80;99.90;;;17.53;100.00;100474.41;10338679;28;97776;-90
2023/09/15 01:40:32;;;;;;;2.10;1.38;;;18.80;99.90;;;17.47;100.00;100469.84;10337005;28;96639;-90
2023/09/15 01:45:35;;;;;;;3.00;1.88;;;18.80;99.90;;;17.46;100.00;100474.41;10336949;28;96675;-90
2023/09/15 01:50:41;;;;;;;3.13;2.17;;;18.70;99.90;;;17.43;100.00;100484.72;10354472;28;96663;-90
2023/09/15 01:55:45;;;;;;;3.47;2.03;;;18.60;99.90;;;17.28;100.00;100474.19;10337319;28;98849;-89
2023/09/15 02:00:51;;;;;;;3.45;2.08;;;18.50;99.90;;;17.20;100.00;100482.41;10352161;28;96666;-89
2023/09/15 02:06:00;;;;;;;3.80;2.00;;;18.50;99.90;;;17.12;100.00;100472.69;10359411;28;96852;-89
2023/09/15 02:11:06;;;;;;;3.40;1.58;;;18.40;99.90;;;17.00;100.00;100472.47;10379449;28;96605;-89
2023/09/15 02:16:11;;;;;;;3.38;2.08;;;18.30;99.90;;;16.93;100.00;100462.75;10311018;28;96809;-89
2023/09/15 02:21:15;;;;;;;3.17;2.25;;;18.20;99.90;;;16.87;100.00;100468.94;10303891;28;96792;-89
2023/09/15 02:26:21;;;;;;;3.60;1.90;;;18.10;99.90;;;16.85;100.00;100463.75;10319841;28;96736;-89
2023/09/15 02:31:25;;;;;;;3.03;1.85;;;18.10;99.90;;;16.81;100.00;100465.19;10305988;28;97033;-89
2023/09/15 02:36:29;;;;;;;2.92;2.08;;;18.00;99.90;;;16.76;100.00;100476.53;10317627;28;98494;-90
2023/09/15 02:41:32;;;;;;;3.00;1.92;;;18.00;99.90;;;16.71;100.00;100486.22;10302861;28;96899;-89
2023/09/15 02:46:38;;;;;;;2.85;1.80;;;17.90;99.90;;;16.65;100.00;100482.44;10314313;28;98452;-89
2023/09/15 02:51:42;;;;;;;3.00;1.77;;;17.90;99.90;;;16.56;100.00;100492.53;10318324;28;97587;-90
2023/09/15 02:56:45;;;;;;;2.92;1.63;;;17.80;99.90;;;16.53;100.00;100492.91;10318811;28;98183;-90
2023/09/15 03:01:50;;;;;;;4.90;1.98;;;17.80;99.90;;;16.43;100.00;100487.09;10317976;28;96618;-89
2023/09/15 03:06:54;;;;;;;2.90;1.67;;;17.80;99.90;;;16.40;100.00;100495.53;10299055;28;96617;-90
2023/09/15 03:11:58;;;;;;;1.95;1.50;;;17.60;99.90;;;16.27;100.00;100490.94;10303040;28;96651;-90
2023/09/15 03:17:03;;;;;;;3.08;1.80;;;17.50;99.90;;;16.04;100.00;100471.63;10298054;28;97332;-89
2023/09/15 03:22:07;;;;;;;3.00;1.60;;;17.40;99.90;;;16.00;100.00;100478.38;10317452;28;96711;-90
2023/09/15 03:27:12;;;;;;;3.78;2.13;;;17.30;99.90;;;15.97;100.00;100471.59;10321437;28;96544;-89
2023/09/15 03:32:16;;;;;;;4.45;2.30;;;17.30;99.90;;;15.96;100.00;100464.56;10318726;28;97210;-90
2023/09/15 03:37:20;;;;;;;3.60;1.88;;;17.30;99.90;;;16.02;100.00;100469.13;10302598;28;97704;-90
2023/09/15 03:42:24;;;;;;;2.90;1.75;;;17.30;99.90;;;16.18;100.00;100477.88;10317712;28;96690;-90
2023/09/15 03:47:27;;;;;;;2.95;1.67;;;17.40;99.90;;;16.22;100.00;100457.69;10285423;28;96920;-90
2023/09/15 03:52:31;;;;;;;2.58;1.63;;;17.50;99.90;;;16.35;100.00;100465.81;10316694;28;96701;-90
2023/09/15 03:57:35;;;;;;;2.75;1.50;;;17.70;99.90;;;16.52;100.00;100472.50;10286358;28;96632;-90
2023/09/15 04:02:39;;;;;;;2.05;1.48;;;17.70;99.90;;;16.60;100.00;100485.72;10316113;28;96746;-89
2023/09/15 04:07:42;;;;;;;3.15;2.05;;;17.80;99.90;;;16.62;100.00;100473.97;10311778;28;98119;-90
2023/09/15 04:12:46;;;;;;;3.80;1.95;;;17.90;99.90;;;16.71;100.00;100487.03;10313181;28;96824;-90
2023/09/15 04:17:50;;;;;;;2.45;1.85;;;17.90;99.90;;;16.65;100.00;100473.56;10307645;28;98411;-90
2023/09/15 04:22:53;;;;;;;3.95;2.20;;;18.00;99.90;;;16.68;100.00;100486.59;10286227;28;96927;-89
2023/09/15 04:27:57;;;;;;;2.78;1.75;;;18.00;99.90;;;16.75;100.00;100490.97;10300954;28;98103;-90
2023/09/15 04:33:01;;;;;;;3.30;2.13;;;18.10;99.90;;;16.83;100.00;100504.22;10297335;28;97544;-90
2023/09/15 04:38:06;;;;;;;2.75;1.88;;;18.10;99.90;;;16.88;100.00;100508.16;10298697;28;96718;-89
2023/09/15 04:43:09;;;;;;;4.18;2.13;;;18.10;99.90;;;16.87;100.00;100501.16;10312952;28;97620;-90
2023/09/15 04:48:13;;;;;;;3.88;2.45;;;18.20;99.90;;;16.87;100.00;100501.97;10308700;28;96700;-90
2023/09/15 04:53:17;;;;;;;3.78;2.10;;;18.20;99.90;;;16.83;100.00;100503.38;10265123;28;96748;-87
2023/09/15 04:58:21;;;;;;;6.40;2.00;;;18.20;99.90;;;16.81;100.00;100508.97;10301656;28;97745;-88
2023/09/15 05:03:25;;;;;;;3.30;1.65;;;18.10;99.90;;;16.72;100.00;100510.16;10311061;28;96681;-87
2023/09/15 05:08:29;;;;;;;3.70;2.05;;;18.00;99.90;;;16.62;100.00;100511.53;10307800;28;98645;-87
2023/09/15 05:13:32;;;;;;;2.85;1.80;;;17.90;99.90;;;16.52;100.00;100515.41;10326396;28;96611;-89
2023/09/15 05:18:36;;;;;;;3.13;1.70;;;17.80;99.90;;;16.47;100.00;100517.03;10314748;28;96830;-89
2023/09/15 05:23:39;;;;;;;2.97;1.92;;;17.70;99.90;;;16.44;100.00;100509.41;10311190;28;96697;-89
2023/09/15 05:28:43;;;;;;;5.97;2.38;;;17.70;99.90;;;16.54;100.00;100517.88;10308266;28;96614;-89
2023/09/15 05:33:46;;;;;;;8.35;3.13;;;17.80;99.90;;;16.68;100.00;100519.63;10313740;28;96674;-89
2023/09/15 05:38:50;;;;;;;5.40;2.40;;;17.90;99.90;;;16.76;100.00;100522.16;10313784;28;98695;-89
2023/09/15 05:43:54;;;;;;;4.78;2.50;;;18.00;99.90;;;16.87;100.00;100530.66;10309032;28;98297;-91
2023/09/15 05:48:58;;;;;;;5.90;2.42;;;18.00;99.90;;;16.92;100.00;100536.25;10289129;28;96587;-90
2023/09/15 05:54:02;;;;;;;4.20;2.28;;;18.10;99.90;;;16.96;100.00;100535.63;10304087;28;96523;-90
2023/09/15 05:59:05;;;;;;;5.50;2.13;;;18.20;99.90;;;16.95;100.00;100525.13;10288469;28;97497;-90
2023/09/15 06:04:10;;;;;;;4.60;2.50;;;18.20;99.90;;;17.03;100.00;100527.59;10333426;28;96654;-91
2023/09/15 06:09:13;;;;;;;5.43;2.65;;;18.20;99.90;;;17.20;100.00;100539.63;10322276;28;96537;-90
2023/09/15 06:14:17;;;;;;;3.85;2.60;;;18.40;99.90;;;17.28;100.00;100525.22;10325150;28;97663;-88
2023/09/15 06:19:21;;;;;;;4.57;2.67;;;18.50;99.90;;;17.50;100.00;100542.78;10326602;28;96443;-89
2023/09/15 06:24:24;;;;;;;3.80;2.53;;;18.70;99.90;;;17.59;100.00;100541.56;10268822;28;96805;-89
2023/09/15 06:29:28;;;;;;;2.85;2.00;;;18.80;99.90;;;17.77;100.00;100543.69;10289428;28;96517;-88
2023/09/15 06:34:32;;;;;;;4.07;2.28;;;19.00;99.90;;;17.93;100.00;100550.50;10248517;28;96617;-90
2023/09/15 06:39:38;;;;;;;4.35;2.63;;;19.10;99.90;;;18.05;100.00;100554.25;10234375;28;96668;-90
2023/09/15 06:44:42;;;;;;;3.08;1.92;;;19.30;99.90;;;18.18;100.00;100553.41;10260445;28;96554;-90
2023/09/15 06:49:45;;;;;;;5.07;2.70;;;19.40;99.90;;;18.33;100.00;100545.06;10252898;28;96678;-92
2023/09/15 06:54:49;;;;;;;3.38;2.28;;;19.50;99.90;;;18.58;100.00;100537.13;10217466;28;96770;-91
2023/09/15 06:59:53;;;;;;;3.35;1.90;;;19.80;99.90;;;18.67;100.00;100523.28;10240159;28;97603;-91
2023/09/15 07:04:56;;;;;;;2.65;1.73;;;20.00;99.90;;;18.96;100.00;100540.75;10232654;28;98272;-90
2023/09/15 07:10:00;;;;;;;5.18;2.10;;;20.20;99.90;;;19.16;97.37;100539.84;10261871;28;97721;-90
2023/09/15 07:15:05;;;;;;;3.13;2.53;;;20.40;99.90;;;19.23;95.45;100540.63;10237205;28;96458;-90
2023/09/15 07:20:09;;;;;;;4.10;2.50;;;20.60;99.90;;;19.43;95.24;100540.47;10285215;28;97009;-90
2023/09/15 07:25:13;;;;;;;3.60;2.10;;;20.70;99.90;;;19.62;94.46;100539.56;10302305;28;96705;-91
2023/09/15 07:30:17;;;;;;;3.22;2.15;;;20.90;99.90;;;19.76;94.27;100540.28;10318539;28;96520;-90
2023/09/15 07:35:22;;;;;;;3.20;2.08;;;21.10;99.90;;;20.03;91.28;100549.81;10285504;28;98013;-90
2023/09/15 07:40:25;;;;;;;3.10;2.20;;;21.30;99.90;;;20.24;91.18;100547.75;10330717;28;96727;-90
2023/09/15 07:45:30;;;;;;;2.60;1.85;;;21.50;99.90;;;20.49;87.82;100550.41;10315381;28;96743;-90
2023/09/15 07:50:33;;;;;;;2.58;1.70;;;21.80;99.90;;;20.63;84.23;100553.78;10298656;28;98235;-90
2023/09/15 07:55:37;;;;;;;2.45;1.50;;;22.00;99.90;;;20.83;82.91;100552.50;10297604;28;98410;-91
2023/09/15 08:00:41;;;;;;;2.28;1.65;;;22.10;99.50;;;21.09;80.78;100542.41;10312919;28;96839;-90
2023/09/15 08:05:45;;;;;;;2.50;1.70;;;22.40;98.70;;;21.19;76.81;100531.06;10283483;28;96646;-90
2023/09/15 08:10:49;;;;;;;2.72;1.20;;;22.60;97.70;;;21.41;75.75;100537.63;10320247;28;98915;-91
2023/09/15 08:15:53;;;;;;;3.63;1.38;;;22.80;97.20;;;21.59;75.28;100540.28;10301006;28;96897;-91
2023/09/15 08:20:56;;;;;;;2.38;1.50;;;23.00;96.80;;;21.90;73.24;100530.19;10298294;28;97438;-91
2023/09/15 08:26:01;;;;;;;1.55;1.10;;;23.20;95.80;;;22.14;71.62;100514.81;10312173;28;97500;-91
2023/09/15 08:31:05;;;;;;;2.35;1.40;;;23.40;95.30;;;22.32;70.54;100514.69;10299553;28;96524;-91
2023/09/15 08:36:09;;;;;;;2.85;1.50;;;23.60;95.00;;;22.52;70.04;100527.00;10314290;28;96599;-91
2023/09/15 08:41:42;;;;;;;2.97;1.50;;;23.80;94.40;;;22.57;67.82;100519.81;10296640;28;97355;-91
2023/09/15 08:46:48;;;;;;;2.20;1.50;;;23.90;93.80;;;22.72;68.59;100524.72;10291915;28;98397;-91
2023/09/15 08:51:54;;;;;;;1.80;0.98;;;24.10;93.40;;;22.76;66.96;100509.63;10292721;28;97045;-91
2023/09/15 08:56:58;;;;;;;2.70;1.40;;;24.10;92.90;;;22.94;65.92;100514.06;10309376;28;98873;-91
2023/09/15 09:02:03;;;;;;;2.17;1.08;;;24.30;92.10;;;23.08;65.13;100501.88;10294423;28;96719;-91
2023/09/15 09:07:08;;;;;;;1.73;1.20;;;24.30;92.00;;;23.22;63.78;100500.53;10295438;28;96667;-91
2023/09/15 09:12:13;;;;;;;1.80;1.00;;;24.50;91.50;;;23.43;62.74;100500.88;10297172;28;97104;-91
2023/09/15 09:17:18;;;;;;;2.00;1.30;;;24.70;90.80;;;23.69;60.84;100502.97;10299186;28;96503;-91
2023/09/15 09:22:22;;;;;;;2.20;1.00;;;25.00;89.40;;;23.88;59.19;100508.97;10290603;28;97312;-91
2023/09/15 09:27:34;;;;;;;1.63;1.10;;;25.20;89.20;;;23.92;58.50;100503.84;10326689;28;97563;-92
2023/09/15 09:32:38;;;;;;;1.50;1.00;;;25.20;88.10;;;23.97;58.93;100495.78;10295611;28;96698;-92
2023/09/15 09:37:42;;;;;;;1.35;0.80;;;25.40;87.50;;;24.26;55.07;100504.63;10298677;28;96785;-90
2023/09/15 09:42:47;;;;;;;1.02;0.60;;;25.60;85.40;;;24.62;53.86;100492.34;10307107;28;97970;-93
2023/09/15 09:47:50;;;;;;;1.00;0.75;;;25.90;83.60;;;24.97;50.94;100494.66;10293524;28;99021;-92
2023/09/15 09:52:55;;;;;;;1.15;0.80;;;26.30;81.30;;;25.13;50.23;100498.38;10293850;28;96696;-92
2023/09/15 09:58:05;;;;;;;1.15;0.82;;;26.50;78.00;;;25.29;48.81;100500.16;10298584;28;97061;-92
2023/09/15 10:03:09;;;;;;;1.20;0.80;;;26.70;76.90;;;25.52;48.37;100492.75;10298278;28;96997;-93
2023/09/15 10:08:14;;;;;;;0.93;0.65;;;26.80;76.80;;;25.56;48.89;100496.59;10307773;28;97028;-92
2023/09/15 10:13:18;;;;;;;1.10;0.80;;;26.80;76.30;;;25.75;46.48;100491.59;10299623;28;97020;-92
2023/09/15 10:18:23;;;;;;;0.95;0.65;;;27.00;75.30;;;25.59;45.68;100493.34;10288565;28;97191;-92
2023/09/15 10:23:30;;;;;;;1.58;0.80;;;26.90;72.50;;;25.26;45.33;100499.88;10307454;28;96774;-92
2023/09/15 10:28:34;;;;;;;1.10;0.70;;;26.70;72.20;;;24.98;46.01;100495.47;10315992;28;96969;-92
2023/09/15 10:33:42;;;;;;;2.20;0.90;;;26.40;71.90;;;24.73;46.72;100493.28;10303649;28;98544;-92
2023/09/15 10:38:47;;;;;;;1.70;0.80;;;26.10;72.40;;;24.46;46.26;100488.59;10305585;28;97065;-92
2023/09/15 10:43:51;;;;;;;0.95;0.73;;;25.90;72.00;;;24.38;47.57;100480.91;10318324;28;98409;-93
2023/09/15 10:48:55;;;;;;;1.45;0.90;;;25.80;72.60;;;24.44;48.92;100482.63;10298683;28;96944;-92
2023/09/15 10:54:00;;;;;;;1.17;0.90;;;25.70;72.80;;;24.38;49.41;100486.34;10297688;28;96625;-92
2023/09/15 10:59:05;;;;;;;1.45;0.90;;;25.70;73.40;;;24.77;48.86;100473.50;10303552;28;97729;-92
2023/09/15 11:50:57;;;;;;;1.00;0.88;;;27.10;69.30;;;25.70;46.68;100458.88;10374679;23;98949;-93
2023/09/15 11:56:02;;;;;;;0.65;0.55;;;26.80;70.40;;;25.36;46.95;100451.78;9865293;29;96684;-92
2023/09/15 12:01:06;;;;;;;1.10;0.70;;;26.50;70.80;;;25.21;47.19;100442.69;9888154;29;96701;-93
2023/09/15 12:06:10;;;;;;;1.00;0.70;;;26.40;71.10;;;25.05;47.43;100444.44;9895275;29;97218;-92
2023/09/15 12:11:14;;;;;;;1.58;0.90;;;26.30;71.20;;;24.92;47.87;100442.13;9847077;29;96655;-92
2023/09/15 12:16:26;;;;;;;1.48;1.00;;;26.20;71.30;;;24.85;48.28;100442.31;9866814;29;96675;-92
2023/09/15 12:21:30;;;;;;;0.95;0.85;;;26.10;71.40;;;24.72;49.69;100438.13;9865559;29;97692;-90
2023/09/15 12:26:35;;;;;;;1.17;0.88;;;26.00;71.90;;;24.67;49.89;100438.06;9867382;29;96647;-89
2023/09/15 12:31:47;;;;;;;0.93;0.70;;;25.90;72.30;;;24.58;49.28;100434.16;9858522;29;98639;-89
2023/09/15 12:36:52;;;;;;;0.82;0.73;;;25.80;72.40;;;24.55;50.27;100427.34;9881275;29;96707;-90
2023/09/15 12:42:05;;;;;;;1.02;0.63;;;25.80;72.70;;;24.49;49.52;100419.38;9857274;29;96972;-90
2023/09/15 12:47:11;;;;;;;1.00;0.70;;;25.70;72.60;;;24.39;49.34;100424.69;9860789;29;96598;-90
2023/09/15 12:52:15;;;;;;;1.40;0.90;;;25.60;72.80;;;24.27;49.78;100419.34;9891378;29;96759;-90
2023/09/15 12:57:19;;;;;;;0.93;0.73;;;25.60;72.50;;;24.18;49.77;100419.00;9897043;29;96697;-89
2023/09/15 13:02:23;;;;;;;1.10;0.80;;;25.50;72.50;;;24.11;49.97;100409.38;9900816;29;97669;-89
2023/09/15 13:07:27;;;;;;;1.10;0.70;;;25.40;72.60;;;24.15;50.65;100410.50;9906252;29;98212;-90
2023/09/15 13:12:31;;;;;;;1.20;0.80;;;25.40;72.70;;;24.18;49.81;100405.41;9918182;29;96475;-91
2023/09/15 13:17:35;;;;;;;1.50;1.00;;;25.50;73.10;;;24.20;49.99;100402.44;9964060;29;96464;-91
2023/09/15 13:22:39;;;;;;;1.23;0.70;;;25.50;73.00;;;24.33;49.79;100390.38;9950166;29;97080;-91
2023/09/15 13:27:42;;;;;;;1.48;0.90;;;25.60;72.30;;;24.44;49.12;100395.69;9906862;29;96727;-91
2023/09/15 13:32:46;;;;;;;1.60;0.68;;;25.70;72.00;;;24.64;49.51;100392.38;9875799;23;98005;-88
2023/09/15 13:37:50;;;;;;;1.20;0.70;;;25.90;71.90;;;24.69;48.70;100388.88;9925082;29;96668;-88
2023/09/15 13:42:54;;;;;;;1.00;0.70;;;26.00;71.50;;;24.72;48.30;100382.97;9927393;29;96778;-88
2023/09/15 13:47:57;;;;;;;0.80;0.60;;;26.00;71.20;;;24.82;48.89;100375.69;9886156;29;96904;-90
2023/09/15 13:53:01;;;;;;;1.27;0.70;;;26.10;71.40;;;24.78;48.60;100377.31;9909681;29;96675;-90
2023/09/15 13:58:05;;;;;;;0.95;0.82;;;26.10;70.90;;;24.76;47.83;100373.19;9917533;29;96631;-89
2023/09/15 14:03:08;;;;;;;0.98;0.60;;;26.00;70.60;;;24.68;48.28;100374.47;9908830;29;96698;-90
2023/09/15 14:08:12;;;;;;;1.50;0.82;;;25.90;70.60;;;24.65;49.35;100372.31;9916674;29;96460;-90
2023/09/15 14:13:18;;;;;;;1.58;0.70;;;25.80;71.30;;;24.70;48.72;100364.16;9891484;29;96697;-89
2023/09/15 14:18:22;;;;;;;1.50;0.82;;;25.90;71.30;;;24.73;48.45;100363.66;9926143;29;97278;-91
2023/09/15 14:23:26;;;;;;;1.40;0.85;;;26.00;71.00;;;24.73;48.94;100351.97;9916246;29;98558;-88
2023/09/15 14:28:29;;;;;;;2.20;0.70;;;26.00;71.20;;;24.65;48.49;100349.72;9910842;29;96745;-89
2023/09/15 14:33:33;;;;;;;1.20;0.98;;;25.90;71.10;;;24.54;48.60;100354.25;9924698;29;96767;-89
2023/09/15 14:38:37;;;;;;;1.65;1.13;;;25.80;70.90;;;24.43;49.57;100341.63;9911134;29;96477;-89
2023/09/15 14:43:41;;;;;;;5.45;0.90;;;25.70;71.30;;;24.29;51.16;100347.44;9902598;29;97503;-89
2023/09/15 14:48:49;;;;;;;1.13;0.50;;;25.50;72.10;;;24.16;51.08;100347.00;9898951;29;98176;-88
2023/09/15 14:53:54;;;;;;;1.60;1.00;;;25.40;72.50;;;24.00;52.68;100341.41;9904322;29;96553;-88
2023/09/15 14:58:57;;;;;;;1.67;0.82;;;25.20;73.00;;;23.88;53.69;100351.56;9907320;29;97380;-88
2023/09/15 15:04:02;;;;;;;1.75;1.10;;;25.10;73.60;;;23.79;53.99;100349.53;9924465;29;98654;-88
2023/09/15 15:09:05;;;;;;;2.35;0.77;;;25.00;74.20;;;23.89;54.43;100347.78;9920207;29;97357;-90
2023/09/15 15:14:09;;;;;;;1.50;1.00;;;25.10;75.10;;;24.41;52.98;100343.75;9918526;29;96604;-89
2023/09/15 15:19:12;;;;;;;1.05;0.70;;;25.90;75.00;;;25.02;51.24;100342.47;9915551;29;96693;-89
2023/09/15 15:24:16;;;;;;;1.27;0.70;;;26.50;73.30;;;25.22;51.01;100349.16;9939758;29;96446;-89
2023/09/15 15:29:19;;;;;;;1.65;1.05;;;26.60;73.00;;;25.31;52.96;100347.59;9918640;29;98281;-89
2023/09/15 15:34:28;;;;;;;2.92;0.85;;;26.70;73.70;;;25.51;53.89;100342.28;9933535;29;96644;-89
2023/09/15 15:39:33;;;;;;;1.40;1.00;;;26.80;74.30;;;25.85;53.26;100345.50;9911403;29;96688;-89
2023/09/15 15:44:37;;;;;;;1.17;0.80;;;27.20;74.30;;;25.94;48.52;100344.97;9930082;29;96788;-89
2023/09/15 15:49:40;;;;;;;1.42;0.70;;;27.30;72.30;;;25.84;48.86;100348.47;9892569;29;97525;-89
2023/09/15 15:54:46;;;;;;;1.45;1.02;;;27.10;72.20;;;25.65;48.91;100352.69;9910427;29;97418;-89
2023/09/15 15:59:50;;;;;;;1.70;0.90;;;26.80;72.20;;;25.33;50.15;100350.88;9918837;29;96748;-90
2023/09/15 16:04:53;;;;;;;1.20;0.80;;;26.40;72.90;;;24.97;51.32;100347.03;9893376;29;98378;-90
2023/09/15 16:09:57;;;;;;;1.13;0.80;;;26.10;73.40;;;24.58;53.16;100360.78;9887751;29;98434;-90
2023/09/15 16:15:01;;;;;;;1.27;0.80;;;25.80;74.00;;;24.26;54.28;100352.56;9908460;29;96878;-91
2023/09/15 16:20:06;;;;;;;1.20;0.80;;;25.50;74.60;;;23.94;55.40;100353.28;9906412;29;96737;-89
2023/09/15 16:25:09;;;;;;;1.08;0.68;;;25.20;75.10;;;23.71;55.63;100351.59;9894940;29;98543;-89
2023/09/15 16:30:13;;;;;;;1.38;0.90;;;25.00;75.50;;;23.46;56.12;100349.34;9905927;29;98718;-88
2023/09/15 16:35:17;;;;;;;0.88;0.63;;;24.70;75.70;;;23.17;56.51;100350.50;9881800;29;98511;-89
2023/09/15 16:40:21;;;;;;;1.10;0.80;;;24.50;76.00;;;22.92;57.18;100354.44;9902664;29;96645;-89
2023/09/15 16:45:24;;;;;;;1.23;0.95;;;24.30;76.40;;;22.61;58.15;100357.63;9885668;29;96776;-89
2023/09/15 16:50:28;;;;;;;2.42;0.80;;;24.00;76.90;;;22.36;58.88;100363.41;9900925;29;96714;-89
2023/09/15 16:55:32;;;;;;;2.00;0.95;;;23.70;77.50;;;22.10;59.72;100367.50;9878385;29;98008;-89
2023/09/15 17:00:36;;;;;;;1.88;1.00;;;23.40;77.90;;;21.87;60.49;100377.28;9915075;29;96682;-87
2023/09/15 17:05:40;;;;;;;2.97;0.98;;;23.20;78.30;;;21.73;61.53;100396.72;9884771;29;98635;-88
2023/09/15 17:10:46;;;;;;;4.05;1.20;;;23.00;79.10;;;21.59;62.09;100390.69;9898872;29;96538;-88
2023/09/15 17:15:49;;;;;;;1.85;1.05;;;22.80;79.70;;;21.40;63.02;100399.97;9903333;29;97248;-88
2023/09/15 17:20:53;;;;;;;1.73;1.10;;;22.60;80.30;;;21.19;64.47;100404.06;9892280;29;96601;-87
2023/09/15 17:25:57;;;;;;;2.60;1.27;;;22.40;81.20;;;20.96;64.90;100408.34;9913857;29;96652;-87
2023/09/15 17:31:02;;;;;;;2.17;1.50;;;22.10;81.90;;;20.80;65.80;100417.09;9913581;29;97943;-87
2023/09/15 17:36:06;;;;;;;2.05;1.20;;;21.90;82.60;;;20.61;66.48;100410.91;9908033;29;96612;-87
2023/09/15 17:41:10;;;;;;;2.25;0.95;;;21.80;83.30;;;20.48;67.08;100411.09;9903940;29;96601;-88
2023/09/15 17:46:14;;;;;;;3.03;1.52;;;21.60;83.60;;;20.35;67.49;100412.06;9908477;29;96951;-87
2023/09/15 17:51:17;;;;;;;3.25;1.85;;;21.50;84.00;;;20.20;68.31;100419.72;9925759;29;96705;-87
2023/09/15 17:56:21;;;;;;;1.88;1.02;;;21.40;84.80;;;20.02;68.87;100426.75;9924088;29;98493;-88
2023/09/15 18:01:25;;;;;;;1.98;1.30;;;21.20;85.20;;;19.90;69.37;100438.50;9906736;29;96637;-87
2023/09/15 18:06:28;;;;;;;16.70;7.05;;;21.10;85.40;;;19.82;69.86;100434.25;9925531;29;97246;-85
2023/09/15 18:11:32;;;;;;;27.27;11.40;;;21.00;85.80;;;19.76;70.02;100432.44;9881164;29;96666;-85
2023/09/15 18:16:36;;;;;;;18.67;8.80;;;20.90;86.00;;;19.70;70.32;100438.72;9901522;29;97961;-85
2023/09/15 18:21:39;;;;;;;14.30;7.03;;;20.80;86.10;;;19.60;70.44;100439.19;9904319;29;96676;-85
2023/09/15 18:26:45;;;;;;;30.63;14.35;;;20.70;86.40;;;19.48;71.56;100443.63;9910196;29;96708;-85
2023/09/15 18:31:49;;;;;;;26.85;13.65;;;20.60;87.00;;;19.39;71.58;100444.97;9926098;29;96900;-85
2023/09/15 18:36:56;;;;;;;21.23;10.85;;;20.50;87.40;;;19.28;71.90;100446.50;9909846;29;96923;-85
2023/09/15 18:42:00;;;;;;;17.95;9.82;;;20.40;87.70;;;19.22;71.87;100448.19;9901235;29;96615;-85
2023/09/15 18:47:05;;;;;;;18.15;9.05;;;20.30;87.80;;;19.13;72.13;100449.50;9913599;29;96489;-85
2023/09/15 18:52:08;;;;;;;30.67;14.80;;;20.20;88.00;;;19.03;72.36;100451.84;9927628;29;96558;-85
2023/09/15 18:57:12;;;;;;;13.57;7.63;;;20.10;88.30;;;18.97;72.37;100455.41;9937640;29;96763;-85
2023/09/15 19:02:19;;;;;;;6.97;4.75;;;20.10;88.50;;;18.90;72.11;100477.00;9927254;29;96889;-85
2023/09/15 19:07:24;;;;;;;4.50;2.78;;;20.00;88.60;;;18.84;73.38;100483.25;9909039;29;97631;-85
2023/09/15 19:12:27;;;;;;;5.10;3.00;;;20.00;88.90;;;18.78;73.65;100486.78;9898840;29;96624;-85
2023/09/15 19:17:31;;;;;;;4.72;2.63;;;19.90;89.00;;;18.74;73.65;100480.19;9908151;29;96653;-85
2023/09/15 19:22:36;;;;;;;4.03;1.77;;;19.90;89.30;;;18.58;74.51;100488.69;9909274;29;97034;-85
2023/09/15 19:27:39;;;;;;;2.83;1.80;;;19.80;89.80;;;18.38;74.53;100486.09;9888456;29;96742;-85
2023/09/15 19:32:43;;;;;;;2.50;1.60;;;19.60;90.20;;;18.24;75.09;100498.75;9895667;29;97842;-85
2023/09/15 19:37:46;;;;;;;2.03;1.30;;;19.40;90.30;;;18.14;75.54;100496.50;9879686;29;96514;-85
2023/09/15 19:42:50;;;;;;;3.28;1.52;;;19.30;90.50;;;18.02;76.41;100500.03;9906739;29;98561;-87
2023/09/15 19:47:54;;;;;;;2.92;1.25;;;19.20;90.60;;;17.92;76.94;100500.44;9931005;29;97390;-86
2023/09/15 19:52:58;;;;;;;3.05;1.75;;;19.10;90.80;;;17.81;77.33;100491.19;9899300;29;97790;-92
2023/09/15 19:58:02;;;;;;;2.38;1.67;;;19.00;91.00;;;17.76;77.95;100507.09;9934703;29;96732;-89
2023/09/15 20:03:06;;;;;;;2.05;1.20;;;18.90;91.20;;;17.70;77.93;100501.69;9907194;29;96564;-88
2023/09/15 20:08:10;;;;;;;1.92;1.27;;;18.80;91.30;;;17.68;78.07;100509.94;9882292;29;96686;-88
2023/09/15 20:13:14;;;;;;;2.50;1.40;;;18.80;91.40;;;17.62;78.60;100497.34;9899226;29;96599;-88
2023/09/15 20:18:19;;;;;;;2.83;1.30;;;18.80;91.60;;;17.54;79.10;100497.53;9877304;29;96649;-88
2023/09/15 20:23:23;;;;;;;2.30;1.30;;;18.70;91.70;;;17.54;79.49;100502.91;9898705;29;98437;-88
2023/09/15 20:28:26;;;;;;;2.10;1.40;;;18.70;91.90;;;17.48;80.08;100501.88;9918103;29;97426;-88
2023/09/15 20:33:30;;;;;;;2.28;1.40;;;18.60;92.00;;;17.45;80.70;100502.28;9904616;29;100148;-88
2023/09/15 20:38:35;;;;;;;2.75;1.40;;;18.60;92.20;;;17.46;80.90;100503.13;9891929;29;96695;-88
2023/09/15 20:43:39;;;;;;;2.22;1.35;;;18.60;92.40;;;17.47;81.51;100507.47;9901548;29;97433;-87
2023/09/15 20:48:43;;;;;;;1.55;1.20;;;18.60;92.60;;;17.52;81.73;100508.50;9895376;29;96598;-87
2023/09/15 20:53:46;;;;;;;1.92;0.95;;;18.70;92.80;;;17.59;81.74;100511.19;9924547;29;96723;-88
2023/09/15 20:58:50;;;;;;;1.60;1.17;;;18.70;92.70;;;17.71;81.39;100508.72;9912449;29;96535;-88
2023/09/15 21:03:53;;;;;;;2.10;1.10;;;18.80;92.60;;;17.82;81.13;100514.34;9901804;29;97118;-88
2023/09/15 21:08:59;;;;;;;1.73;1.00;;;19.00;92.70;;;17.88;81.01;100505.44;9901400;29;96921;-87
2023/09/15 21:14:04;;;;;;;2.05;0.93;;;19.00;92.80;;;17.91;81.18;100506.88;9897931;29;97051;-87
2023/09/15 21:19:08;;;;;;;2.40;1.42;;;19.10;92.80;;;17.92;81.01;100500.44;9933129;29;97484;-88
2023/09/15 21:24:12;;;;;;;2.13;1.38;;;19.10;92.90;;;17.92;81.06;100505.81;9899547;29;96686;-88
2023/09/15 21:29:15;;;;;;;3.00;1.30;;;19.10;92.90;;;17.90;81.49;100508.72;9921072;29;96533;-88
2023/09/15 21:34:19;;;;;;;2.00;1.02;;;19.00;93.10;;;17.88;81.51;100500.06;9875075;29;1317767;-88
2023/09/15 21:39:23;;;;;;;2.42;1.38;;;19.00;93.20;;;17.84;81.88;100500.66;9897270;29;97398;-88
2023/09/15 21:44:27;;;;;;;3.28;1.10;;;19.00;93.30;;;17.81;82.28;100504.63;9897356;29;96564;-87